Time;durP1;ratioP1;P1;durP2;ratioP2;P2;SDS_P1;SDS_P2;PMS_P1;PMS_P2;Temp;Humidity;BMP_temperature;BMP_pressure;BME280_temperature;BME280_humidity;BME280_pressure;Samples;Min_cycle;Max_cycle;Signal;HPM_P1;HPM_P2
2021/07/12 00:00:27;;;;;;;23.40;12.82;;;;;;;19.31;76.55;100555.27;1894817;75;21094;-65
2021/07/12 00:02:56;;;;;;;26.35;14.07;;;;;;;19.28;76.31;100561.22;1893502;75;21141;-65
2021/07/12 00:05:26;;;;;;;22.10;13.38;;;;;;;19.25;76.35;100558.77;1894652;75;21541;-65
2021/07/12 00:07:56;;;;;;;22.42;13.10;;;;;;;19.24;76.51;100562.44;1892142;75;21146;-65
2021/07/12 00:10:27;;;;;;;24.07;14.30;;;;;;;19.23;76.43;100559.38;1891480;76;21542;-65
2021/07/12 00:12:57;;;;;;;22.13;13.40;;;;;;;19.24;76.15;100557.09;1891534;76;21109;-65
2021/07/12 00:15:28;;;;;;;29.32;16.02;;;;;;;19.25;76.41;100556.11;1891781;75;21498;-65
2021/07/12 00:17:57;;;;;;;23.77;15.63;;;;;;;19.26;76.18;100567.66;1891617;76;21106;-65
2021/07/12 00:20:26;;;;;;;31.95;20.52;;;;;;;19.25;76.14;100570.78;1891561;75;22150;-65
2021/07/12 00:22:57;;;;;;;35.98;28.70;;;;;;;19.25;76.34;100572.62;1891484;76;21639;-65
2021/07/12 00:25:27;;;;;;;57.33;42.73;;;;;;;19.23;76.52;100563.88;1891749;76;21117;-65
2021/07/12 00:27:55;;;;;;;63.25;50.43;;;;;;;19.21;76.48;100566.66;1891542;76;21072;-65
2021/07/12 00:30:25;;;;;;;59.95;42.65;;;;;;;19.15;76.67;100570.31;1891562;76;21177;-65
2021/07/12 00:32:56;;;;;;;115.65;89.90;;;;;;;19.15;76.49;100566.31;1891571;76;21471;-65
2021/07/12 00:35:26;;;;;;;69.25;48.38;;;;;;;19.14;76.66;100573.45;1891768;76;21137;-65
2021/07/12 00:37:55;;;;;;;61.25;42.78;;;;;;;19.12;76.53;100574.05;1891613;76;21594;-65
2021/07/12 00:40:27;;;;;;;37.03;23.22;;;;;;;19.11;76.51;100577.71;1891637;75;21518;-64
2021/07/12 00:42:57;;;;;;;34.43;22.22;;;;;;;19.05;76.76;100576.83;1891714;76;21012;-65
2021/07/12 00:45:28;;;;;;;31.27;16.57;;;;;;;19.01;76.77;100580.71;1891501;76;21575;-66
2021/07/12 00:48:00;;;;;;;29.65;15.18;;;;;;;18.95;77.05;100587.86;1891945;76;21055;-65
2021/07/12 00:50:31;;;;;;;27.02;14.68;;;;;;;18.88;77.33;100584.31;1891664;75;21121;-65
2021/07/12 00:53:04;;;;;;;23.42;13.70;;;;;;;18.83;77.61;100586.97;1891588;76;21523;-64
2021/07/12 00:55:48;;;;;;;31.50;14.13;;;;;;;18.79;77.65;100590.31;1891762;76;21109;-65
2021/07/12 00:58:21;;;;;;;26.77;14.20;;;;;;;18.78;77.48;100591.79;1891819;76;21129;-65
2021/07/12 01:00:53;;;;;;;27.30;12.55;;;;;;;18.73;77.36;100592.13;1891684;76;21036;-65
2021/07/12 01:03:23;;;;;;;21.87;14.07;;;;;;;18.68;77.28;100588.95;1891619;76;21159;-65
2021/07/12 01:05:54;;;;;;;24.25;13.70;;;;;;;18.65;77.50;100594.04;1891602;76;21102;-65
2021/07/12 01:08:24;;;;;;;28.80;14.18;;;;;;;18.62;77.94;100596.92;1891485;76;21080;-65
2021/07/12 01:11:07;;;;;;;24.70;14.05;;;;;;;18.60;77.97;100596.69;1890669;75;21091;-65
2021/07/12 01:13:41;;;;;;;28.32;14.78;;;;;;;18.56;77.97;100599.22;1891723;76;21435;-65
2021/07/12 01:16:33;;;;;;;22.22;13.48;;;;;;;18.52;77.83;100595.44;1891503;76;21063;-65
2021/07/12 01:19:22;;;;;;;27.27;15.18;;;;;;;18.48;78.08;100595.31;1891788;76;21086;-65
2021/07/12 01:22:20;;;;;;;26.02;15.63;;;;;;;18.42;78.16;100593.57;1891704;76;21063;-65
2021/07/12 01:24:57;;;;;;;28.32;16.02;;;;;;;18.36;78.77;100597.55;1891555;76;21039;-67
2021/07/12 01:28:00;;;;;;;31.25;15.13;;;;;;;18.31;78.83;100596.56;1891616;76;21055;-64
2021/07/12 01:30:44;;;;;;;31.73;16.10;;;;;;;18.28;79.22;100600.78;1889138;75;21043;-64
2021/07/12 01:33:13;;;;;;;;;;;;;;;18.26;79.17;100604.50;1894333;76;21122;-66
2021/07/12 01:36:00;;;;;;;29.67;14.58;;;;;;;18.21;79.34;100601.35;1891316;75;20146;-64
2021/07/12 01:38:48;;;;;;;24.67;12.80;;;;;;;18.19;78.78;100607.28;1891665;75;21113;-64
2021/07/12 01:41:26;;;;;;;20.88;13.22;;;;;;;18.17;78.80;100610.51;1891481;76;21171;-65
2021/07/12 01:44:04;;;;;;;24.57;14.03;;;;;;;18.12;78.74;100606.37;1891568;75;21623;-65
2021/07/12 01:46:42;;;;;;;24.00;12.78;;;;;;;18.09;78.83;100616.41;1891766;75;21027;-64
2021/07/12 01:49:26;;;;;;;23.73;12.93;;;;;;;18.07;78.68;100615.17;1891541;76;21047;-64
2021/07/12 01:52:04;;;;;;;23.27;12.80;;;;;;;18.05;78.70;100620.26;1891575;75;21056;-65
2021/07/12 01:54:46;;;;;;;24.70;13.28;;;;;;;18.05;78.78;100621.09;1891579;75;21127;-65
2021/07/12 01:57:25;;;;;;;27.48;13.03;;;;;;;18.03;78.99;100621.70;1843717;75;21498;-64
2021/07/12 02:00:02;;;;;;;28.40;13.85;;;;;;;18.03;79.42;100620.85;1891601;76;21035;-64
2021/07/12 02:02:34;;;;;;;24.18;13.20;;;;;;;18.01;79.60;100618.30;1891999;75;21063;-65
2021/07/12 02:05:07;;;;;;;27.35;14.47;;;;;;;17.99;79.99;100624.22;1890770;75;21571;-65
2021/07/12 02:07:38;;;;;;;28.57;14.78;;;;;;;17.96;80.16;100624.42;1891194;75;21063;-65
2021/07/12 02:10:08;;;;;;;24.65;14.18;;;;;;;17.98;79.94;100623.83;1891611;76;21043;-65
2021/07/12 02:12:40;;;;;;;26.70;16.50;;;;;;;17.98;79.95;100625.66;1889791;75;21125;-64
2021/07/12 02:15:10;;;;;;;29.32;15.53;;;;;;;18.01;80.10;100628.95;1891441;76;21523;-65
2021/07/12 02:17:41;;;;;;;26.07;15.65;;;;;;;18.01;80.35;100630.28;1891761;75;21008;-65
2021/07/12 02:20:13;;;;;;;24.10;15.55;;;;;;;18.04;80.11;100631.89;1890354;75;21125;-64
2021/07/12 02:22:44;;;;;;;23.27;14.13;;;;;;;18.05;80.14;100626.43;1891652;75;21109;-65
2021/07/12 02:25:18;;;;;;;24.07;13.20;;;;;;;18.04;80.28;100629.23;1890346;75;21129;-66
2021/07/12 02:27:49;;;;;;;28.05;17.73;;;;;;;18.06;80.02;100636.14;1891528;76;21051;-65
2021/07/12 02:30:19;;;;;;;27.37;16.75;;;;;;;18.07;80.10;100632.49;1891613;76;21101;-66
2021/07/12 02:32:49;;;;;;;32.40;16.75;;;;;;;18.05;80.21;100638.91;1891643;76;21036;-65
2021/07/12 02:35:19;;;;;;;25.65;14.68;;;;;;;18.08;80.36;100638.20;1891939;75;21032;-65
2021/07/12 02:37:49;;;;;;;27.48;15.55;;;;;;;18.15;80.27;100637.30;1891690;75;21044;-64
2021/07/12 02:40:21;;;;;;;26.60;15.05;;;;;;;18.24;80.04;100640.63;1891720;76;21086;-65
2021/07/12 02:42:53;;;;;;;28.42;15.35;;;;;;;18.29;79.96;100636.27;1891887;76;21031;-65
2021/07/12 02:45:24;;;;;;;24.82;14.18;;;;;;;18.35;79.76;100633.64;1891767;75;21060;-64
2021/07/12 02:47:54;;;;;;;23.13;13.73;;;;;;;18.42;79.60;100637.06;1892102;75;21060;-64
2021/07/12 02:50:27;;;;;;;23.67;14.03;;;;;;;18.50;79.31;100630.70;1891799;76;22272;-65
2021/07/12 02:53:06;;;;;;;21.02;13.53;;;;;;;18.66;78.87;100626.88;1891923;76;21048;-65
2021/07/12 02:55:35;;;;;;;24.20;13.00;;;;;;;18.74;78.44;100628.97;1891896;75;21121;-65
2021/07/12 02:58:04;;;;;;;25.40;13.90;;;;;;;18.80;78.21;100626.70;1891853;76;21126;-64
2021/07/12 03:00:33;;;;;;;25.72;14.13;;;;;;;18.87;78.12;100622.64;1891725;75;21040;-65
2021/07/12 03:03:03;;;;;;;20.88;11.95;;;;;;;18.93;77.81;100623.98;1891901;76;21016;-66
2021/07/12 03:05:33;;;;;;;21.02;12.43;;;;;;;19.05;77.62;100624.86;1891722;76;21060;-66
2021/07/12 03:08:11;;;;;;;26.73;13.45;;;;;;;19.24;77.34;100629.16;1891570;75;21444;-66
2021/07/12 03:10:49;;;;;;;28.27;14.55;;;;;;;19.42;76.95;100630.02;1891713;75;21067;-66
2021/07/12 03:13:36;;;;;;;26.60;13.90;;;;;;;19.61;76.73;100633.46;1891334;75;21569;-66
2021/07/12 03:16:05;;;;;;;22.25;12.13;;;;;;;19.81;76.51;100633.25;1830772;78;21553;-65
2021/07/12 03:18:40;;;;;;;22.77;13.22;;;;;;;19.98;76.15;100628.73;1872544;75;21035;-65
2021/07/12 03:21:09;;;;;;;24.35;12.68;;;;;;;20.15;75.83;100626.52;1891732;75;21205;-66
2021/07/12 03:23:43;;;;;;;21.62;12.75;;;;;;;20.27;75.09;100633.55;1891821;76;21063;-65
2021/07/12 03:26:14;;;;;;;24.67;13.90;;;;;;;20.40;74.82;100630.72;1891601;75;21137;-65
2021/07/12 03:28:44;;;;;;;26.70;12.68;;;;;;;20.54;74.62;100626.39;1891790;76;21535;-65
2021/07/12 03:31:15;;;;;;;25.05;14.68;;;;;;;20.67;74.19;100631.61;1891698;76;21133;-65
2021/07/12 03:33:45;;;;;;;23.22;13.30;;;;;;;20.73;73.23;100631.58;1891691;76;21527;-66
2021/07/12 03:36:14;;;;;;;22.30;13.70;;;;;;;20.78;73.04;100634.23;1891556;76;21040;-66
2021/07/12 03:38:44;;;;;;;22.77;13.03;;;;;;;20.87;72.64;100634.45;1891883;76;21472;-65
2021/07/12 03:41:14;;;;;;;24.67;16.23;;;;;;;20.96;72.65;100629.66;1891679;75;21104;-65
2021/07/12 03:43:46;;;;;;;25.72;13.60;;;;;;;21.04;72.23;100631.19;1891633;75;21137;-65
2021/07/12 03:46:15;;;;;;;21.42;14.45;;;;;;;21.14;72.11;100633.45;1891717;76;21545;-65
2021/07/12 03:48:46;;;;;;;19.25;11.63;;;;;;;21.30;71.99;100626.77;1891575;76;21117;-66
2021/07/12 03:51:25;;;;;;;22.65;13.03;;;;;;;21.48;71.45;100622.53;1891625;75;21114;-65
2021/07/12 03:53:56;;;;;;;22.40;12.30;;;;;;;21.64;71.08;100624.73;1891546;75;21129;-65
2021/07/12 03:56:25;;;;;;;20.62;12.03;;;;;;;21.80;70.87;100621.56;1891670;76;21032;-65
2021/07/12 03:58:54;;;;;;;23.00;12.33;;;;;;;21.91;70.28;100625.48;1891805;76;21008;-65
2021/07/12 04:01:23;;;;;;;23.07;12.47;;;;;;;22.04;69.79;100625.70;1891580;76;21084;-65
2021/07/12 04:03:53;;;;;;;22.32;11.70;;;;;;;22.17;68.99;100626.33;1891707;76;21129;-66
2021/07/12 04:06:22;;;;;;;22.22;12.47;;;;;;;22.35;68.72;100621.14;1891777;76;21016;-65
2021/07/12 04:08:51;;;;;;;22.13;12.90;;;;;;;22.55;68.27;100622.02;1891742;75;21088;-65
2021/07/12 04:11:22;;;;;;;18.25;11.57;;;;;;;22.65;67.54;100628.24;1894344;76;21141;-65
2021/07/12 04:13:50;;;;;;;23.07;12.15;;;;;;;22.54;67.14;100631.91;1894379;75;21035;-65
2021/07/12 04:16:19;;;;;;;27.37;12.18;;;;;;;22.48;67.01;100628.45;1894537;75;21028;-66
2021/07/12 04:18:48;;;;;;;26.90;12.45;;;;;;;22.42;66.83;100636.20;1894495;75;21064;-65
2021/07/12 04:21:17;;;;;;;23.77;12.80;;;;;;;22.46;66.98;100638.95;1894588;75;21172;-65
2021/07/12 04:23:45;;;;;;;29.92;16.07;;;;;;;22.53;66.97;100642.77;1894422;76;21036;-65
2021/07/12 04:26:14;;;;;;;27.20;15.38;;;;;;;22.46;66.74;100643.81;1894454;76;21113;-65
2021/07/12 04:28:43;;;;;;;23.98;13.22;;;;;;;22.35;66.76;100643.94;1896107;75;21184;-65
2021/07/12 04:31:14;;;;;;;30.15;14.43;;;;;;;22.26;66.86;100637.59;1894539;75;21048;-65
2021/07/12 04:33:43;;;;;;;24.50;13.45;;;;;;;22.28;66.94;100638.30;1894201;75;21519;-65
2021/07/12 04:36:13;;;;;;;27.10;14.20;;;;;;;22.54;67.04;100640.45;1894454;76;21059;-65
2021/07/12 04:38:41;;;;;;;26.17;13.78;;;;;;;22.91;66.96;100642.44;1894452;76;21529;-64
2021/07/12 04:41:10;;;;;;;22.93;13.00;;;;;;;23.17;66.61;100640.53;1894509;75;21117;-65
2021/07/12 04:43:39;;;;;;;23.35;13.32;;;;;;;23.28;66.18;100633.65;1894526;76;21083;-65
2021/07/12 04:46:08;;;;;;;23.60;14.83;;;;;;;23.43;65.82;100635.38;1894562;75;21091;-65
2021/07/12 04:48:37;;;;;;;26.68;14.78;;;;;;;23.60;65.27;100636.45;1894475;76;21075;-65
2021/07/12 04:51:07;;;;;;;23.18;12.70;;;;;;;23.92;64.90;100639.23;1894823;75;21055;-65
2021/07/12 04:53:35;;;;;;;21.50;12.90;;;;;;;23.95;63.93;100637.60;1894098;76;21494;-66
2021/07/12 04:56:07;;;;;;;34.03;16.10;;;;;;;24.04;63.83;100634.85;1894690;75;21064;-66
2021/07/12 04:58:42;;;;;;;25.23;13.68;;;;;;;24.42;63.58;100629.36;1894667;75;21110;-65
2021/07/12 05:01:06;;;;;;;23.75;13.03;;;;;;;24.83;62.84;100633.33;1893989;75;21040;-65
2021/07/12 05:03:36;;;;;;;19.85;12.23;;;;;;;25.22;61.79;100632.11;1894439;75;21067;-65
2021/07/12 05:06:05;;;;;;;23.65;12.20;;;;;;;25.54;61.11;100631.48;1894535;75;21153;-65
2021/07/12 05:08:34;;;;;;;20.65;11.73;;;;;;;25.84;60.59;100636.03;1894644;75;21548;-65
2021/07/12 05:11:03;;;;;;;18.50;10.48;;;;;;;26.25;60.32;100636.71;1892852;75;21087;-65
2021/07/12 05:13:33;;;;;;;19.70;11.93;;;;;;;26.68;59.42;100634.78;1891840;76;21431;-65
2021/07/12 05:16:02;;;;;;;24.75;12.40;;;;;;;27.07;59.30;100634.93;1891768;76;21009;-65
2021/07/12 05:18:32;;;;;;;20.70;11.08;;;;;;;27.40;57.43;100634.92;1891681;75;21098;-67
2021/07/12 05:21:01;;;;;;;17.45;11.05;;;;;;;27.66;56.52;100639.25;1891836;76;21478;-65
2021/07/12 05:23:29;;;;;;;18.48;10.32;;;;;;;27.96;56.23;100636.30;1891635;76;21055;-65
2021/07/12 05:25:58;;;;;;;19.23;10.85;;;;;;;28.23;55.01;100636.83;1891722;76;21149;-65
2021/07/12 05:28:27;;;;;;;28.60;11.33;;;;;;;28.55;54.85;100638.53;1891733;76;21036;-65
2021/07/12 05:30:56;;;;;;;19.73;11.00;;;;;;;28.83;52.91;100635.27;1891584;76;21036;-66
2021/07/12 05:33:24;;;;;;;19.07;10.80;;;;;;;29.00;52.50;100634.09;1891588;76;21012;-65
2021/07/12 05:35:53;;;;;;;19.27;10.60;;;;;;;29.23;51.58;100634.57;1891760;76;21028;-65
2021/07/12 05:38:22;;;;;;;16.42;10.43;;;;;;;29.44;50.92;100634.70;1891622;76;21095;-65
2021/07/12 05:40:51;;;;;;;17.45;11.88;;;;;;;29.65;50.52;100635.30;1891659;76;21040;-65
2021/07/12 05:43:19;;;;;;;24.32;13.55;;;;;;;29.81;50.03;100631.59;1891575;76;21036;-65
2021/07/12 05:45:48;;;;;;;24.30;13.18;;;;;;;29.86;49.82;100624.22;1891524;76;21059;-65
2021/07/12 05:48:17;;;;;;;20.37;11.55;;;;;;;29.98;49.61;100629.50;1891540;76;21043;-65
2021/07/12 05:50:45;;;;;;;18.10;12.85;;;;;;;30.05;48.55;100629.59;1891695;76;21063;-65
2021/07/12 05:53:15;;;;;;;19.98;12.45;;;;;;;29.96;47.51;100624.78;1891657;75;21036;-65
2021/07/12 05:55:44;;;;;;;22.62;13.48;;;;;;;30.05;47.35;100627.40;1891710;76;21040;-65
2021/07/12 05:58:13;;;;;;;20.40;11.95;;;;;;;30.10;47.11;100621.72;1891617;76;21113;-65
2021/07/12 06:00:42;;;;;;;17.57;11.35;;;;;;;30.11;46.03;100632.89;1891687;75;21028;-65
2021/07/12 06:03:11;;;;;;;20.02;11.88;;;;;;;30.21;45.96;100632.58;1891579;76;21539;-65
2021/07/12 06:05:40;;;;;;;19.70;10.60;;;;;;;30.28;44.88;100628.06;1891616;76;21134;-65
2021/07/12 06:08:09;;;;;;;18.45;10.78;;;;;;;30.40;44.97;100629.80;1891709;76;21063;-65
2021/07/12 06:10:38;;;;;;;19.07;11.25;;;;;;;30.57;45.41;100623.07;1892087;76;21549;-66
2021/07/12 06:13:06;;;;;;;16.75;10.25;;;;;;;30.89;46.30;100632.23;1895128;75;21490;-65
2021/07/12 06:15:35;;;;;;;18.80;10.75;;;;;;;31.17;45.33;100633.14;1894633;75;21061;-65
2021/07/12 06:18:04;;;;;;;15.38;11.20;;;;;;;31.38;45.18;100636.83;1894685;75;21031;-65
2021/07/12 06:20:33;;;;;;;17.35;10.30;;;;;;;31.50;44.41;100633.91;1894892;75;21024;-65
2021/07/12 06:23:02;;;;;;;15.53;10.32;;;;;;;31.64;43.90;100638.06;1894733;75;21032;-65
2021/07/12 06:25:30;;;;;;;18.32;10.82;;;;;;;31.75;42.84;100643.77;1894687;75;21181;-65
2021/07/12 06:27:59;;;;;;;18.55;10.43;;;;;;;31.92;42.94;100642.06;1894309;76;21060;-65
2021/07/12 06:30:28;;;;;;;15.83;9.33;;;;;;;32.16;42.87;100641.25;1894592;75;21106;-65
2021/07/12 06:32:58;;;;;;;17.90;10.15;;;;;;;32.47;42.64;100651.08;1895013;75;21055;-65
2021/07/12 06:35:27;;;;;;;16.12;9.55;;;;;;;32.72;42.33;100645.08;1896216;75;21459;-65
2021/07/12 06:37:56;;;;;;;15.00;10.03;;;;;;;32.90;41.31;100643.08;1894135;75;21110;-65
2021/07/12 06:40:24;;;;;;;15.13;9.65;;;;;;;33.04;41.43;100649.38;1894725;75;21113;-65
2021/07/12 06:42:53;;;;;;;15.85;9.83;;;;;;;33.34;41.89;100647.06;1894492;75;21643;-65
2021/07/12 06:45:24;;;;;;;16.65;9.30;;;;;;;33.63;40.81;100650.37;1894775;75;21055;-65
2021/07/12 06:47:53;;;;;;;16.02;9.75;;;;;;;33.84;40.41;100647.37;1894264;76;21490;-65
2021/07/12 06:50:22;;;;;;;13.43;9.40;;;;;;;33.96;39.55;100653.02;1894481;75;21137;-66
2021/07/12 06:52:51;;;;;;;15.03;9.70;;;;;;;33.93;39.08;100651.25;1894334;76;21088;-65
2021/07/12 06:55:20;;;;;;;17.30;9.13;;;;;;;34.08;39.72;100651.80;1894591;75;21032;-65
2021/07/12 06:57:49;;;;;;;14.80;9.65;;;;;;;34.40;40.02;100645.06;1894875;75;21599;-65
2021/07/12 07:00:18;;;;;;;15.85;9.93;;;;;;;34.68;39.02;100651.52;1894519;76;21052;-65
2021/07/12 07:03:00;;;;;;;;;;;;;;;34.74;38.32;100657.45;1897229;76;21543;-65
2021/07/12 07:05:30;;;;;;;18.65;10.08;;;;;;;34.94;39.07;100649.64;1894355;76;20432;-64
2021/07/12 07:08:00;;;;;;;12.73;9.50;;;;;;;35.09;38.49;100650.66;1887501;75;21589;-64
2021/07/12 07:10:30;;;;;;;15.78;9.58;;;;;;;35.06;38.43;100652.47;1860983;76;21111;-64
2021/07/12 07:12:59;;;;;;;13.30;9.53;;;;;;;35.35;39.10;100655.90;1860609;77;21609;-62
2021/07/12 07:15:29;;;;;;;13.20;9.48;;;;;;;35.42;37.85;100644.06;1861682;76;21715;-63
2021/07/12 07:17:59;;;;;;;13.18;9.00;;;;;;;35.42;37.85;100644.06;1861086;76;21079;-63
2021/07/12 07:20:28;;;;;;;13.48;8.33;;;;;;;35.58;36.81;100644.84;1861393;77;21130;-63
2021/07/12 07:22:57;;;;;;;11.45;9.38;;;;;;;35.55;36.56;100637.90;1860920;77;21056;-63
2021/07/12 07:25:26;;;;;;;11.93;7.95;;;;;;;35.57;36.89;100641.23;1860954;76;21541;-63
2021/07/12 07:27:57;;;;;;;12.55;7.75;;;;;;;35.71;35.28;100649.33;1860803;76;21052;-63
2021/07/12 07:30:26;;;;;;;13.53;8.23;;;;;;;35.83;34.24;100652.16;1860921;76;21566;-63
2021/07/12 07:32:55;;;;;;;12.15;8.33;;;;;;;35.92;33.51;100653.52;1860525;77;21067;-63
2021/07/12 07:35:24;;;;;;;13.22;8.38;;;;;;;36.12;33.51;100653.27;1860597;77;21483;-62
2021/07/12 07:37:53;;;;;;;12.93;7.72;;;;;;;36.29;33.13;100652.11;1861339;76;21537;-63
2021/07/12 07:40:22;;;;;;;11.10;7.80;;;;;;;36.55;33.24;100647.31;1861079;76;21071;-63
2021/07/12 07:42:51;;;;;;;12.33;8.75;;;;;;;36.78;32.66;100651.52;1860953;76;21135;-63
2021/07/12 07:45:20;;;;;;;11.65;8.33;;;;;;;36.99;33.00;100650.64;1861133;77;21048;-63
2021/07/12 07:47:49;;;;;;;12.15;7.95;;;;;;;37.09;32.79;100650.86;1861127;76;21146;-63
2021/07/12 07:50:19;;;;;;;11.88;7.65;;;;;;;36.92;32.81;100648.54;1860898;77;21067;-63
2021/07/12 07:52:49;;;;;;;12.95;8.00;;;;;;;36.93;33.61;100648.82;1861024;76;21044;-63
2021/07/12 07:55:18;;;;;;;10.50;7.72;;;;;;;37.07;33.11;100656.62;1860644;77;21121;-63
2021/07/12 07:57:48;;;;;;;12.25;7.75;;;;;;;37.25;33.18;100649.36;1860877;76;21051;-62
2021/07/12 08:00:19;;;;;;;9.93;7.42;;;;;;;37.55;32.74;100651.11;1861017;76;21036;-63
2021/07/12 08:02:48;;;;;;;15.70;8.00;;;;;;;37.73;31.86;100647.42;1861177;76;21044;-63
2021/07/12 08:05:18;;;;;;;12.30;8.25;;;;;;;37.73;32.23;100647.42;1860968;76;21545;-63
2021/07/12 08:07:47;;;;;;;12.00;8.20;;;;;;;37.65;33.11;100652.20;1860646;77;21118;-62
2021/07/12 08:10:18;;;;;;;12.70;8.10;;;;;;;37.72;32.56;100656.72;1860938;77;21036;-62
2021/07/12 08:12:48;;;;;;;13.45;8.18;;;;;;;37.81;32.90;100649.77;1861422;76;21071;-62
2021/07/12 08:15:18;;;;;;;11.97;8.10;;;;;;;38.05;32.61;100651.38;1860867;77;21024;-63
2021/07/12 08:17:49;;;;;;;11.73;8.03;;;;;;;38.25;32.59;100659.75;1860773;77;21545;-63
2021/07/12 08:20:18;;;;;;;11.33;8.38;;;;;;;38.59;31.97;100654.36;1860896;77;21514;-63
2021/07/12 08:22:50;;;;;;;13.00;7.47;;;;;;;38.67;31.42;100651.19;1860777;77;21040;-63
2021/07/12 08:25:19;;;;;;;18.42;10.50;;;;;;;38.80;31.24;100650.85;1861175;76;21109;-63
2021/07/12 08:27:49;;;;;;;10.23;7.83;;;;;;;38.71;30.94;100649.59;1861242;76;21126;-63
2021/07/12 08:30:20;;;;;;;11.70;7.62;;;;;;;38.68;31.87;100653.39;1861466;76;21118;-63
2021/07/12 08:32:49;;;;;;;11.08;7.62;;;;;;;38.55;31.41;100645.77;1861849;76;21122;-63
2021/07/12 08:35:18;;;;;;;10.35;8.20;;;;;;;38.42;30.86;100649.63;1861025;76;21145;-63
2021/07/12 08:37:50;;;;;;;11.75;7.60;;;;;;;37.94;30.79;100642.65;1860842;76;21447;-62
2021/07/12 08:40:22;;;;;;;13.93;8.05;;;;;;;37.80;31.58;100642.62;1860721;77;21117;-63
2021/07/12 08:42:52;;;;;;;;;;;;;;;37.61;30.86;100640.53;1863615;76;21079;-63
2021/07/12 08:45:21;;;;;;;12.10;7.92;;;;;;;37.44;31.14;100646.79;1860829;77;20121;-63
2021/07/12 08:47:50;;;;;;;12.88;8.60;;;;;;;37.59;33.13;100645.43;1860861;77;21157;-63
2021/07/12 08:50:20;;;;;;;12.85;8.83;;;;;;;37.98;32.72;100638.33;1860837;76;21020;-63
2021/07/12 08:52:50;;;;;;;13.25;9.28;;;;;;;38.29;31.90;100640.30;1861300;76;21052;-62
2021/07/12 08:55:20;;;;;;;15.05;9.20;;;;;;;38.61;32.09;100637.06;1860898;76;21103;-63
2021/07/12 08:58:07;;;;;;;12.30;9.18;;;;;;;38.92;30.92;100643.05;1860889;76;21075;-63
2021/07/12 09:00:50;;;;;;;14.00;8.50;;;;;;;39.11;29.83;100634.86;1860647;77;21067;-63
2021/07/12 09:03:26;;;;;;;14.38;8.95;;;;;;;39.13;30.14;100632.68;1859665;77;21052;-63
2021/07/12 09:06:07;;;;;;;11.97;8.88;;;;;;;38.96;29.09;100634.61;1860852;76;21043;-63
2021/07/12 09:08:54;;;;;;;17.35;10.05;;;;;;;39.05;29.56;100631.75;1860774;77;21044;-63
2021/07/12 09:11:43;;;;;;;15.45;9.85;;;;;;;39.06;27.25;100629.82;1860816;77;21060;-63
2021/07/12 09:14:11;;;;;;;15.28;9.23;;;;;;;39.15;27.63;100623.63;1860383;77;21103;-63
2021/07/12 09:16:55;;;;;;;17.73;10.78;;;;;;;39.23;26.14;100628.41;1861278;76;21130;-63
2021/07/12 09:19:30;;;;;;;17.20;9.73;;;;;;;38.88;25.14;100629.50;1860840;77;21063;-63
2021/07/12 09:22:07;;;;;;;17.95;10.88;;;;;;;38.52;25.18;100630.27;1861309;76;21063;-63
2021/07/12 09:24:54;;;;;;;14.15;9.55;;;;;;;38.40;25.36;100628.42;1860335;77;21146;-63
2021/07/12 09:27:26;;;;;;;34.50;28.47;;;;;;;38.43;25.79;100633.96;1860515;77;21533;-63
2021/07/12 09:30:00;;;;;;;17.77;9.85;;;;;;;38.70;25.47;100627.31;1859017;77;21052;-63
2021/07/12 09:32:31;;;;;;;12.82;9.73;;;;;;;38.65;25.08;100630.52;1860654;77;21055;-63
2021/07/12 09:35:05;;;;;;;14.10;9.30;;;;;;;38.65;24.95;100634.09;1860619;77;21165;-63
2021/07/12 09:37:34;;;;;;;20.50;9.43;;;;;;;38.52;25.29;100632.47;1861224;76;21060;-63
2021/07/12 09:40:06;;;;;;;15.78;9.33;;;;;;;38.53;25.58;100631.41;1860763;76;21060;-63
2021/07/12 09:42:35;;;;;;;16.10;9.58;;;;;;;38.58;25.69;100627.92;1859930;77;21557;-63
2021/07/12 09:45:06;;;;;;;19.25;10.53;;;;;;;38.47;25.12;100630.17;1860463;77;21051;-63
2021/07/12 09:47:38;;;;;;;13.88;9.48;;;;;;;38.42;25.14;100628.16;1860960;77;21047;-63
2021/07/12 09:50:24;;;;;;;15.95;9.78;;;;;;;38.32;25.67;100630.73;1861323;76;21055;-63
2021/07/12 09:52:55;;;;;;;16.00;10.25;;;;;;;38.36;25.77;100634.11;1860722;77;21048;-63
2021/07/12 09:55:26;;;;;;;14.68;9.78;;;;;;;38.51;25.84;100625.84;1860930;77;21068;-63
2021/07/12 09:58:16;;;;;;;12.40;9.18;;;;;;;38.29;25.81;100633.97;1860922;76;21063;-63
2021/07/12 10:00:53;;;;;;;14.47;9.23;;;;;;;38.10;25.91;100634.17;1860929;77;21024;-62
2021/07/12 10:03:23;;;;;;;12.65;9.00;;;;;;;38.12;26.42;100633.94;1860930;77;21479;-62
2021/07/12 10:06:00;;;;;;;23.83;9.88;;;;;;;38.26;26.87;100635.31;1860495;77;21439;-68
2021/07/12 10:08:25;;;;;;;16.20;11.33;;;;;;;38.32;27.33;100626.61;1861927;76;21515;-63
2021/07/12 10:10:56;;;;;;;16.45;8.80;;;;;;;38.41;27.44;100626.50;1860612;77;21044;-63
2021/07/12 10:13:25;;;;;;;14.45;8.90;;;;;;;38.47;27.57;100623.30;1860809;76;21036;-63
2021/07/12 10:15:54;;;;;;;15.32;9.75;;;;;;;38.37;27.34;100627.53;1860885;76;21071;-63
2021/07/12 10:18:26;;;;;;;16.65;9.53;;;;;;;38.40;27.79;100632.55;1861110;76;21036;-63
2021/07/12 10:20:54;;;;;;;16.12;9.68;;;;;;;38.38;27.56;100627.84;1860911;76;21040;-63
2021/07/12 10:23:24;;;;;;;15.45;9.30;;;;;;;38.56;28.40;100628.16;1861140;76;21040;-63
2021/07/12 10:25:55;;;;;;;13.20;8.95;;;;;;;38.61;27.58;100628.81;1860509;77;21153;-63
2021/07/12 10:28:43;;;;;;;16.42;9.03;;;;;;;38.45;27.21;100629.59;1860822;76;21056;-63
2021/07/12 10:31:20;;;;;;;19.15;11.43;;;;;;;38.17;27.67;100627.17;1860136;77;21059;-63
2021/07/12 10:33:49;;;;;;;15.15;9.38;;;;;;;37.99;28.64;100629.53;1861146;76;21110;-63
2021/07/12 10:36:40;;;;;;;19.80;12.43;;;;;;;37.90;28.17;100628.25;1860866;77;21121;-63
2021/07/12 10:39:09;;;;;;;17.23;10.10;;;;;;;37.78;29.17;100625.00;1860942;76;21533;-63
2021/07/12 10:41:40;;;;;;;13.45;10.50;;;;;;;37.71;29.59;100624.85;1861160;76;21023;-63
2021/07/12 10:44:09;;;;;;;16.77;10.00;;;;;;;37.77;29.84;100619.75;1860003;77;21145;-63
2021/07/12 10:46:39;;;;;;;17.23;9.60;;;;;;;37.83;29.32;100620.14;1860403;77;21044;-63
2021/07/12 10:49:27;;;;;;;15.55;9.45;;;;;;;37.86;30.03;100616.36;1861098;76;21477;-63
2021/07/12 10:51:55;;;;;;;14.18;9.08;;;;;;;37.86;29.40;100617.73;1840910;77;21128;-63
2021/07/12 10:54:27;;;;;;;16.52;10.75;;;;;;;37.66;28.65;100614.06;1860912;76;21143;-63
2021/07/12 10:56:58;;;;;;;19.45;10.70;;;;;;;37.53;29.25;100613.45;1861381;76;21162;-63
2021/07/12 10:59:34;;;;;;;19.82;9.45;;;;;;;37.45;29.99;100616.03;1861596;76;21114;-63
2021/07/12 11:02:18;;;;;;;22.32;11.40;;;;;;;37.31;28.83;100610.50;1861023;76;21118;-63
2021/07/12 11:04:55;;;;;;;16.73;9.45;;;;;;;37.08;28.90;100614.91;1851452;77;21048;-63
2021/07/12 11:07:45;;;;;;;15.98;9.58;;;;;;;36.94;28.54;100609.35;1860573;77;21076;-63
2021/07/12 11:10:27;;;;;;;16.15;9.98;;;;;;;36.82;27.83;100604.70;1860889;77;21486;-64
2021/07/12 11:13:03;;;;;;;18.00;10.32;;;;;;;36.66;28.33;100610.33;1861285;76;21115;-65
2021/07/12 11:15:34;;;;;;;14.63;9.93;;;;;;;36.46;28.61;100607.87;1861052;76;21158;-63
2021/07/12 11:18:08;;;;;;;17.62;10.23;;;;;;;36.16;29.08;100601.57;1861476;76;21088;-63
2021/07/12 11:20:46;;;;;;;16.35;9.40;;;;;;;36.03;29.70;100606.16;1859001;76;21051;-63
2021/07/12 11:23:51;;;;;;;15.55;10.23;;;;;;;35.98;29.54;100610.13;1860740;77;21016;-63
2021/07/12 11:26:30;;;;;;;19.35;10.00;;;;;;;35.92;29.30;100602.84;1860966;77;21483;-63
2021/07/12 11:29:04;;;;;;;17.62;10.23;;;;;;;36.00;29.64;100599.77;1860680;77;21088;-63
2021/07/12 11:31:57;;;;;;;13.45;9.38;;;;;;;36.01;30.73;100604.19;1859827;77;21498;-65
2021/07/12 11:34:31;;;;;;;14.90;9.08;;;;;;;36.06;30.54;100603.48;1860663;77;21032;-63